createdAt,value
2019-02-22T00:02:56.570Z,38.80
2019-02-22T00:07:58.776Z,39.37
2019-02-22T00:13:00.785Z,39.60
2019-02-22T00:18:02.942Z,37.47
2019-02-22T00:23:07.953Z,39.80
2019-02-22T00:28:10.331Z,39.13
2019-02-22T00:33:12.367Z,40.67
2019-02-22T00:38:15.291Z,40.07
2019-02-22T00:43:18.534Z,43.13
2019-02-22T00:48:23.487Z,43.30
2019-02-22T00:53:25.832Z,41.80
2019-02-22T00:58:29.816Z,42.53
2019-02-22T01:03:33.804Z,43.80
2019-02-22T01:08:38.100Z,43.37
2019-02-22T01:13:42.094Z,44.53
2019-02-22T01:18:44.549Z,43.57
2019-02-22T01:23:46.892Z,45.47
2019-02-22T01:28:48.885Z,43.40
2019-02-22T01:33:50.936Z,41.73
2019-02-22T01:38:55.696Z,42.73
2019-02-22T01:44:00.809Z,41.73
2019-02-22T01:49:02.882Z,43.30
2019-02-22T01:54:04.925Z,43.00
2019-02-22T01:59:07.287Z,40.50
2019-02-22T02:04:09.568Z,42.23
2019-02-22T02:09:11.624Z,42.77
2019-02-22T02:14:13.835Z,42.67
2019-02-22T02:19:16.200Z,45.43
2019-02-22T02:24:19.542Z,43.90
2019-02-22T02:29:21.657Z,43.27
2019-02-22T02:34:23.769Z,42.57
2019-02-22T02:39:25.819Z,43.43
2019-02-22T02:44:27.906Z,42.70
2019-02-22T02:49:29.923Z,44.13
2019-02-22T02:54:31.948Z,42.73
2019-02-22T02:59:34.010Z,42.80
2019-02-22T03:04:36.027Z,40.97
2019-02-22T03:09:38.075Z,42.77
2019-02-22T03:14:40.135Z,41.87
2019-02-22T03:19:42.231Z,42.53
2019-02-22T03:24:44.263Z,40.47
2019-02-22T03:29:46.350Z,41.33
2019-02-22T03:34:49.525Z,41.67
2019-02-22T03:39:51.865Z,40.50
2019-02-22T03:44:53.876Z,41.47
2019-02-22T03:49:57.303Z,41.97
2019-02-22T03:55:00.439Z,40.70
2019-02-22T04:00:07.215Z,39.97
2019-02-22T04:05:10.452Z,41.70
2019-02-22T04:10:13.162Z,40.50
2019-02-22T04:15:17.143Z,38.83
2019-02-22T04:20:19.233Z,38.90
2019-02-22T04:25:21.260Z,41.03
2019-02-22T04:30:23.501Z,40.13
2019-02-22T04:35:27.778Z,39.73
2019-02-22T04:40:29.929Z,39.23
2019-02-22T04:45:31.998Z,42.30
2019-02-22T04:50:34.018Z,38.80
2019-02-22T04:55:36.028Z,40.73
2019-02-22T05:00:39.704Z,39.67
2019-02-22T05:05:42.940Z,39.70
2019-02-22T05:10:44.997Z,40.40
2019-02-22T05:15:47.023Z,39.97
2019-02-22T05:20:49.274Z,39.30
2019-02-22T05:25:51.330Z,39.10
2019-02-22T05:30:53.697Z,39.70
2019-02-22T05:35:56.078Z,39.43
2019-02-22T05:40:58.359Z,41.50
2019-02-22T05:46:00.403Z,38.07
2019-02-22T05:51:04.881Z,39.93
2019-02-22T05:56:07.064Z,41.83
2019-02-22T06:01:09.128Z,42.63
2019-02-22T06:06:15.840Z,41.93
2019-02-22T06:11:18.188Z,40.63
2019-02-22T06:16:20.225Z,40.37
2019-02-22T06:21:22.857Z,40.77
2019-02-22T06:26:25.342Z,41.63
2019-02-22T06:31:27.459Z,40.60
2019-02-22T06:36:32.102Z,41.63
2019-02-22T06:41:36.022Z,41.77
2019-02-22T06:46:39.260Z,39.80
2019-02-22T06:51:41.515Z,41.20
2019-02-22T06:56:43.573Z,41.17
2019-02-22T07:01:49.890Z,41.20
2019-02-22T07:06:52.759Z,40.63
2019-02-22T07:12:08.028Z,40.53
2019-02-22T07:17:10.038Z,40.57
2019-02-22T07:22:12.621Z,40.83
2019-02-22T07:27:14.746Z,39.20
2019-02-22T07:32:18.040Z,38.53
2019-02-22T07:37:20.069Z,40.93
2019-02-22T07:42:22.189Z,41.20
2019-02-22T07:47:24.207Z,39.57
2019-02-22T07:52:26.774Z,38.87
2019-02-22T07:57:30.686Z,37.50
2019-02-22T08:02:33.578Z,39.00
2019-02-22T08:07:35.775Z,38.37
2019-02-22T08:12:37.868Z,36.37
2019-02-22T08:17:40.798Z,37.40
2019-02-22T08:22:42.990Z,39.43
2019-02-22T08:27:53.923Z,37.60
2019-02-22T08:32:54.397Z,37.53
2019-02-22T08:37:56.475Z,38.37
2019-02-22T08:42:58.594Z,36.67
2019-02-22T08:48:00.641Z,37.20
2019-02-22T08:53:03.063Z,38.17
2019-02-22T08:58:07.447Z,38.20
2019-02-22T09:03:10.839Z,36.50
2019-02-22T09:08:12.908Z,35.70
2019-02-22T09:13:14.918Z,37.47
2019-02-22T09:18:16.965Z,35.60
2019-02-22T09:23:19.021Z,35.97
2019-02-22T09:28:21.050Z,35.83
2019-02-22T09:33:25.127Z,45.63
2019-02-22T09:38:29.005Z,38.13
2019-02-22T09:43:31.301Z,37.20
2019-02-22T09:48:34.902Z,43.42
2019-02-22T09:53:37.169Z,37.10
2019-02-22T09:58:39.184Z,37.73
2019-02-22T10:03:41.341Z,37.40
2019-02-22T10:08:43.429Z,36.50
2019-02-22T10:13:45.585Z,33.83
2019-02-22T10:18:49.755Z,35.37
2019-02-22T10:23:51.778Z,36.90
2019-02-22T10:28:54.273Z,37.97
2019-02-22T10:33:56.842Z,37.53
2019-02-22T10:38:59.162Z,35.97
2019-02-22T10:44:01.462Z,34.33
2019-02-22T10:49:03.795Z,35.63
2019-02-22T10:54:09.492Z,34.57
2019-02-22T10:59:11.528Z,36.17
2019-02-22T11:04:13.552Z,35.67
2019-02-22T11:09:16.340Z,36.07
2019-02-22T11:14:28.455Z,34.63
2019-02-22T11:19:22.614Z,34.50
2019-02-22T11:24:26.912Z,34.43
2019-02-22T11:29:28.988Z,35.67
2019-02-22T11:34:31.114Z,34.60
2019-02-22T11:39:33.131Z,33.67
2019-02-22T11:44:43.030Z,31.93
2019-02-22T11:49:48.039Z,34.10
2019-02-22T11:54:53.541Z,33.47
2019-02-22T11:59:55.833Z,33.57
2019-02-22T12:05:06.871Z,31.10
2019-02-22T12:10:08.953Z,30.93
2019-02-22T12:15:18.764Z,29.27
2019-02-22T12:20:20.935Z,23.87
2019-02-22T12:25:22.971Z,25.33
2019-02-22T12:30:28.057Z,23.67
2019-02-22T12:35:32.412Z,26.70
2019-02-22T12:40:34.418Z,27.60
2019-02-22T12:45:36.433Z,28.70
2019-02-22T12:50:40.330Z,29.17
2019-02-22T12:55:42.411Z,29.93
2019-02-22T13:00:46.296Z,29.73
2019-02-22T13:05:48.318Z,28.67
2019-02-22T13:10:50.511Z,25.07
2019-02-22T13:15:54.947Z,20.60
2019-02-22T13:20:58.270Z,17.70
2019-02-22T13:26:00.271Z,11.70
2019-02-22T13:31:02.508Z,9.87
2019-02-22T13:36:06.533Z,11.57
2019-02-22T13:41:08.668Z,11.27
2019-02-22T13:46:10.743Z,12.50
2019-02-22T13:51:12.835Z,12.27
2019-02-22T13:56:15.140Z,12.90
2019-02-22T14:01:20.150Z,16.07
2019-02-22T14:06:22.158Z,14.93
2019-02-22T14:11:24.431Z,16.43
2019-02-22T14:16:26.487Z,15.70
2019-02-22T14:21:28.882Z,16.97
2019-02-22T14:26:33.640Z,19.73
2019-02-22T14:31:37.312Z,16.87
2019-02-22T14:36:39.492Z,19.12
2019-02-22T14:41:41.516Z,18.37
2019-02-22T14:46:48.064Z,17.63
2019-02-22T14:51:51.974Z,33.73
2019-02-22T14:56:54.002Z,35.52
2019-02-22T15:02:00.801Z,35.73
2019-02-22T15:07:04.942Z,33.18
2019-02-22T15:12:08.934Z,29.37
2019-02-22T15:17:29.186Z,29.87
2019-02-22T15:22:31.298Z,32.67
2019-02-22T15:27:33.306Z,28.60
2019-02-22T15:32:41.206Z,32.42
2019-02-22T15:37:43.625Z,27.90
2019-02-22T15:42:48.461Z,25.23
2019-02-22T15:47:52.047Z,21.77
2019-02-22T15:52:56.465Z,18.17
2019-02-22T15:57:58.613Z,17.23
2019-02-22T16:03:01.800Z,16.30
2019-02-22T16:08:04.035Z,17.07
2019-02-22T16:13:06.361Z,16.70
2019-02-22T16:18:10.662Z,16.80
2019-02-22T16:23:14.070Z,17.47
2019-02-22T16:28:16.261Z,17.07
2019-02-22T16:33:23.821Z,15.83
2019-02-22T16:38:25.867Z,15.97
2019-02-22T16:43:28.890Z,15.57
2019-02-22T16:48:34.918Z,15.63
2019-02-22T16:53:37.244Z,15.63
2019-02-22T16:58:40.759Z,16.47
2019-02-22T17:03:48.071Z,16.07
2019-02-22T17:08:50.059Z,16.17
2019-02-22T17:13:53.526Z,15.73
2019-02-22T17:18:56.894Z,16.03
2019-02-22T17:23:59.294Z,16.30
2019-02-22T17:29:05.389Z,17.00
2019-02-22T17:34:08.860Z,15.77
2019-02-22T17:39:13.533Z,16.37
2019-02-22T17:44:15.810Z,16.77
2019-02-22T17:49:36.857Z,17.93
2019-02-22T17:54:42.189Z,18.50
2019-02-22T17:59:44.250Z,17.17
2019-02-22T18:04:46.922Z,16.97
2019-02-22T18:09:49.006Z,17.48
2019-02-22T18:14:51.696Z,20.05
2019-02-22T18:19:56.823Z,17.70
2019-02-22T18:24:58.844Z,17.33
2019-02-22T18:30:01.013Z,17.50
2019-02-22T18:35:06.645Z,17.70
2019-02-22T18:40:12.830Z,17.73
2019-02-22T18:45:19.504Z,17.43
2019-02-22T18:50:25.190Z,18.67
2019-02-22T18:55:27.267Z,17.50
2019-02-22T19:00:29.538Z,17.90
2019-02-22T19:05:37.638Z,18.77
2019-02-22T19:10:39.679Z,19.10
2019-02-22T19:15:42.350Z,19.83
2019-02-22T19:20:44.375Z,19.73
2019-02-22T19:25:46.467Z,19.70
2019-02-22T19:30:48.719Z,19.80
2019-02-22T19:35:50.996Z,20.63
2019-02-22T19:40:53.018Z,21.60
2019-02-22T19:46:01.163Z,23.13
2019-02-22T19:51:05.193Z,23.37
2019-02-22T19:56:09.144Z,22.00
2019-02-22T20:01:11.743Z,22.53
2019-02-22T20:06:14.028Z,22.77
2019-02-22T20:11:16.100Z,22.80
2019-02-22T20:16:20.917Z,22.37
2019-02-22T20:21:23.244Z,23.47
2019-02-22T20:26:25.275Z,22.80
2019-02-22T20:31:29.959Z,22.50
2019-02-22T20:36:32.022Z,24.50
2019-02-22T20:41:34.062Z,23.90
2019-02-22T20:46:36.548Z,23.67
2019-02-22T20:51:38.633Z,25.97
2019-02-22T20:56:43.134Z,25.93
2019-02-22T21:01:47.101Z,26.23
2019-02-22T21:06:51.769Z,27.77
2019-02-22T21:11:58.440Z,29.57
2019-02-22T21:17:02.572Z,30.13
2019-02-22T21:22:09.966Z,31.33
2019-02-22T21:27:12.158Z,32.40
2019-02-22T21:32:14.330Z,32.73
2019-02-22T21:37:16.986Z,32.90
2019-02-22T21:42:20.356Z,33.07
2019-02-22T21:47:22.617Z,33.20
2019-02-22T21:52:25.380Z,33.87
2019-02-22T21:57:28.095Z,34.53
2019-02-22T22:02:32.511Z,33.73
2019-02-22T22:07:37.272Z,35.10
2019-02-22T22:12:43.326Z,34.90
2019-02-22T22:17:46.429Z,35.57
2019-02-22T22:22:48.663Z,35.37
2019-02-22T22:27:50.746Z,35.60
2019-02-22T22:32:52.896Z,36.30
2019-02-22T22:37:55.041Z,38.90
2019-02-22T22:42:57.116Z,37.77
2019-02-22T22:47:59.113Z,36.70
2019-02-22T22:53:01.415Z,38.63
2019-02-22T22:58:05.889Z,36.97
2019-02-22T23:03:08.161Z,38.43
2019-02-22T23:08:11.516Z,38.57
2019-02-22T23:13:23.644Z,38.77
2019-02-22T23:18:27.560Z,39.03
2019-02-22T23:23:30.516Z,39.10
2019-02-22T23:28:32.568Z,39.23
2019-02-22T23:33:39.920Z,37.70
2019-02-22T23:38:43.840Z,37.40
2019-02-22T23:43:46.140Z,38.10
2019-02-22T23:48:50.811Z,37.60
2019-02-22T23:53:56.573Z,37.20
2019-02-22T23:59:00.158Z,38.63
